sensor_id;sensor_type;location;lat;lon;timestamp;pressure;altitude;pressure_sealevel;temperature;humidity
30730;BME280;17476;48.458;7.928;2022-12-18T00:01:05;101184.50;;;-1.92;89.81
30730;BME280;17476;48.458;7.928;2022-12-18T00:03:38;101186.78;;;-1.84;89.87
30730;BME280;17476;48.458;7.928;2022-12-18T00:06:04;101184.97;;;-1.81;89.52
30730;BME280;17476;48.458;7.928;2022-12-18T00:08:30;101198.50;;;-1.77;89.04
30730;BME280;17476;48.458;7.928;2022-12-18T00:11:06;101189.16;;;-1.78;88.94
30730;BME280;17476;48.458;7.928;2022-12-18T00:13:33;101194.34;;;-1.80;88.47
30730;BME280;17476;48.458;7.928;2022-12-18T00:16:08;101187.41;;;-1.78;89.39
30730;BME280;17476;48.458;7.928;2022-12-18T00:18:35;101183.09;;;-1.76;89.57
30730;BME280;17476;48.458;7.928;2022-12-18T00:21:04;101191.66;;;-1.77;89.06
30730;BME280;17476;48.458;7.928;2022-12-18T00:23:31;101190.78;;;-1.76;88.97
30730;BME280;17476;48.458;7.928;2022-12-18T00:26:02;101184.63;;;-1.72;88.59
30730;BME280;17476;48.458;7.928;2022-12-18T00:28:28;101182.22;;;-1.76;87.92
30730;BME280;17476;48.458;7.928;2022-12-18T00:31:22;101178.47;;;-1.91;88.27
30730;BME280;17476;48.458;7.928;2022-12-18T00:33:48;101172.53;;;-1.92;88.37
30730;BME280;17476;48.458;7.928;2022-12-18T00:36:18;101172.22;;;-2.07;88.92
30730;BME280;17476;48.458;7.928;2022-12-18T00:38:45;101168.56;;;-2.00;88.71
30730;BME280;17476;48.458;7.928;2022-12-18T00:41:14;101177.03;;;-1.98;88.36
30730;BME280;17476;48.458;7.928;2022-12-18T00:44:01;101190.38;;;-1.88;88.85
30730;BME280;17476;48.458;7.928;2022-12-18T00:46:27;101185.75;;;-1.79;88.89
30730;BME280;17476;48.458;7.928;2022-12-18T00:48:53;101174.53;;;-1.76;87.87
30730;BME280;17476;48.458;7.928;2022-12-18T00:51:19;101173.56;;;-1.72;87.38
30730;BME280;17476;48.458;7.928;2022-12-18T00:53:44;101161.72;;;-1.76;87.36
30730;BME280;17476;48.458;7.928;2022-12-18T00:56:10;101165.19;;;-1.77;87.34
30730;BME280;17476;48.458;7.928;2022-12-18T00:58:36;101161.78;;;-1.78;87.93
30730;BME280;17476;48.458;7.928;2022-12-18T01:01:05;101163.50;;;-1.78;87.49
30730;BME280;17476;48.458;7.928;2022-12-18T01:03:31;101164.25;;;-1.75;87.63
30730;BME280;17476;48.458;7.928;2022-12-18T01:05:57;101168.38;;;-1.71;87.47
30730;BME280;17476;48.458;7.928;2022-12-18T01:08:23;101171.75;;;-1.70;86.65
30730;BME280;17476;48.458;7.928;2022-12-18T01:10:49;101168.34;;;-1.69;87.02
30730;BME280;17476;48.458;7.928;2022-12-18T01:13:15;101178.63;;;-1.71;87.41
30730;BME280;17476;48.458;7.928;2022-12-18T01:15:48;101177.78;;;-1.71;87.13
30730;BME280;17476;48.458;7.928;2022-12-18T01:18:13;101185.41;;;-1.70;88.07
30730;BME280;17476;48.458;7.928;2022-12-18T01:20:39;101178.75;;;-1.74;87.41
30730;BME280;17476;48.458;7.928;2022-12-18T01:23:05;101177.56;;;-1.88;86.63
30730;BME280;17476;48.458;7.928;2022-12-18T01:25:31;101177.56;;;-1.88;87.80
30730;BME280;17476;48.458;7.928;2022-12-18T01:27:57;101185.13;;;-1.85;88.23
30730;BME280;17476;48.458;7.928;2022-12-18T01:30:22;101187.59;;;-1.82;88.31
30730;BME280;17476;48.458;7.928;2022-12-18T01:32:48;101196.00;;;-1.79;88.12
30730;BME280;17476;48.458;7.928;2022-12-18T01:35:14;101194.47;;;-1.83;87.88
30730;BME280;17476;48.458;7.928;2022-12-18T01:37:40;101194.00;;;-1.94;87.45
30730;BME280;17476;48.458;7.928;2022-12-18T01:40:07;101199.78;;;-1.89;88.18
30730;BME280;17476;48.458;7.928;2022-12-18T01:42:33;101202.19;;;-1.84;88.27
30730;BME280;17476;48.458;7.928;2022-12-18T01:48:00;101204.47;;;-1.77;87.49
30730;BME280;17476;48.458;7.928;2022-12-18T01:50:32;101211.25;;;-1.74;86.70
30730;BME280;17476;48.458;7.928;2022-12-18T01:53:06;101208.13;;;-1.82;87.00
30730;BME280;17476;48.458;7.928;2022-12-18T01:55:46;101202.03;;;-1.80;87.82
30730;BME280;17476;48.458;7.928;2022-12-18T01:58:14;101207.28;;;-2.08;84.86
30730;BME280;17476;48.458;7.928;2022-12-18T02:00:40;101200.19;;;-2.26;86.05
30730;BME280;17476;48.458;7.928;2022-12-18T02:03:06;101205.22;;;-2.23;88.55
30730;BME280;17476;48.458;7.928;2022-12-18T02:06:12;101201.03;;;-2.26;88.86
30730;BME280;17476;48.458;7.928;2022-12-18T02:09:12;101203.50;;;-2.23;88.55
30730;BME280;17476;48.458;7.928;2022-12-18T02:17:22;101196.91;;;-2.30;88.80
30730;BME280;17476;48.458;7.928;2022-12-18T02:20:20;101195.00;;;-2.25;88.11
30730;BME280;17476;48.458;7.928;2022-12-18T02:23:11;101203.31;;;-2.18;88.07
30730;BME280;17476;48.458;7.928;2022-12-18T02:28:42;101213.38;;;-2.63;87.44
30730;BME280;17476;48.458;7.928;2022-12-18T02:31:16;101206.22;;;-2.54;88.93
30730;BME280;17476;48.458;7.928;2022-12-18T02:33:45;101212.06;;;-2.77;87.91
30730;BME280;17476;48.458;7.928;2022-12-18T02:36:13;101212.78;;;-2.73;90.01
30730;BME280;17476;48.458;7.928;2022-12-18T02:38:42;101215.72;;;-2.85;86.92
30730;BME280;17476;48.458;7.928;2022-12-18T02:41:10;101211.81;;;-2.69;89.01
30730;BME280;17476;48.458;7.928;2022-12-18T02:43:37;101212.06;;;-2.77;89.08
30730;BME280;17476;48.458;7.928;2022-12-18T02:46:38;101204.09;;;-2.67;88.83
30730;BME280;17476;48.458;7.928;2022-12-18T02:52:22;101198.84;;;-2.64;88.56
30730;BME280;17476;48.458;7.928;2022-12-18T02:57:58;101214.84;;;-2.56;90.24
30730;BME280;17476;48.458;7.928;2022-12-18T03:00:33;101215.06;;;-2.37;88.68
30730;BME280;17476;48.458;7.928;2022-12-18T03:03:22;101216.66;;;-2.33;89.18
30730;BME280;17476;48.458;7.928;2022-12-18T03:06:06;101213.91;;;-2.54;88.59
30730;BME280;17476;48.458;7.928;2022-12-18T03:08:39;101223.13;;;-2.48;88.76
30730;BME280;17476;48.458;7.928;2022-12-18T03:11:10;101219.41;;;-2.39;89.52
30730;BME280;17476;48.458;7.928;2022-12-18T03:13:54;101219.84;;;-2.27;88.65
30730;BME280;17476;48.458;7.928;2022-12-18T03:16:28;101220.38;;;-2.17;88.18
30730;BME280;17476;48.458;7.928;2022-12-18T03:19:01;101218.50;;;-2.12;87.46
30730;BME280;17476;48.458;7.928;2022-12-18T03:21:39;101224.84;;;-2.22;85.95
30730;BME280;17476;48.458;7.928;2022-12-18T03:24:08;101219.72;;;-2.24;87.79
30730;BME280;17476;48.458;7.928;2022-12-18T03:26:36;101218.88;;;-2.23;87.46
30730;BME280;17476;48.458;7.928;2022-12-18T03:29:09;101217.03;;;-2.19;87.32
30730;BME280;17476;48.458;7.928;2022-12-18T03:31:40;101218.28;;;-2.57;85.12
30730;BME280;17476;48.458;7.928;2022-12-18T03:34:17;101220.41;;;-2.71;88.48
30730;BME280;17476;48.458;7.928;2022-12-18T03:36:45;101218.38;;;-2.60;89.61
30730;BME280;17476;48.458;7.928;2022-12-18T03:39:11;101214.34;;;-2.41;89.08
30730;BME280;17476;48.458;7.928;2022-12-18T03:44:28;101218.31;;;-2.32;87.56
30730;BME280;17476;48.458;7.928;2022-12-18T03:47:14;101218.38;;;-2.34;87.10
30730;BME280;17476;48.458;7.928;2022-12-18T03:50:27;101225.94;;;-2.31;87.92
30730;BME280;17476;48.458;7.928;2022-12-18T03:54:17;101218.81;;;-2.21;87.88
30730;BME280;17476;48.458;7.928;2022-12-18T03:56:13;101227.59;;;-2.28;84.71
30730;BME280;17476;48.458;7.928;2022-12-18T03:58:42;101226.25;;;-2.66;85.04
30730;BME280;17476;48.458;7.928;2022-12-18T04:01:12;101228.31;;;-2.78;88.51
30730;BME280;17476;48.458;7.928;2022-12-18T04:03:39;101222.31;;;-2.77;88.85
30730;BME280;17476;48.458;7.928;2022-12-18T04:06:07;101227.72;;;-2.59;89.07
30730;BME280;17476;48.458;7.928;2022-12-18T04:08:34;101226.44;;;-2.46;88.61
30730;BME280;17476;48.458;7.928;2022-12-18T04:11:02;101232.03;;;-2.33;88.54
30730;BME280;17476;48.458;7.928;2022-12-18T04:13:32;101227.47;;;-2.25;87.77
30730;BME280;17476;48.458;7.928;2022-12-18T04:15:59;101228.19;;;-2.20;87.25
30730;BME280;17476;48.458;7.928;2022-12-18T04:18:24;101218.69;;;-2.16;86.84
30730;BME280;17476;48.458;7.928;2022-12-18T04:20:50;101204.97;;;-2.15;86.35
30730;BME280;17476;48.458;7.928;2022-12-18T04:23:16;101200.63;;;-2.13;87.02
30730;BME280;17476;48.458;7.928;2022-12-18T04:25:42;101209.97;;;-2.12;86.44
30730;BME280;17476;48.458;7.928;2022-12-18T04:28:08;101211.00;;;-2.16;86.75
30730;BME280;17476;48.458;7.928;2022-12-18T04:30:34;101208.44;;;-2.16;86.64
30730;BME280;17476;48.458;7.928;2022-12-18T04:32:59;101210.03;;;-2.14;86.37
30730;BME280;17476;48.458;7.928;2022-12-18T04:35:25;101209.00;;;-2.08;86.42
30730;BME280;17476;48.458;7.928;2022-12-18T04:37:51;101214.78;;;-2.28;83.72
30730;BME280;17476;48.458;7.928;2022-12-18T04:40:17;101207.44;;;-2.65;85.96
30730;BME280;17476;48.458;7.928;2022-12-18T04:42:43;101204.16;;;-2.69;88.08
30730;BME280;17476;48.458;7.928;2022-12-18T04:45:09;101202.94;;;-2.57;87.49
30730;BME280;17476;48.458;7.928;2022-12-18T04:47:35;101215.75;;;-2.59;86.29
30730;BME280;17476;48.458;7.928;2022-12-18T04:50:01;101214.91;;;-2.59;87.60
30730;BME280;17476;48.458;7.928;2022-12-18T04:52:26;101213.00;;;-2.53;88.47
30730;BME280;17476;48.458;7.928;2022-12-18T04:54:52;101211.25;;;-2.51;88.04
30730;BME280;17476;48.458;7.928;2022-12-18T04:57:18;101209.34;;;-2.45;87.82
30730;BME280;17476;48.458;7.928;2022-12-18T04:59:44;101200.56;;;-2.37;87.84
30730;BME280;17476;48.458;7.928;2022-12-18T05:02:10;101208.25;;;-2.65;85.58
30730;BME280;17476;48.458;7.928;2022-12-18T05:04:36;101208.63;;;-2.76;84.66
30730;BME280;17476;48.458;7.928;2022-12-18T05:07:02;101207.13;;;-3.40;82.13
30730;BME280;17476;48.458;7.928;2022-12-18T05:09:28;101208.19;;;-3.47;86.82
30730;BME280;17476;48.458;7.928;2022-12-18T05:11:53;101206.38;;;-3.44;87.90
30730;BME280;17476;48.458;7.928;2022-12-18T05:14:19;101209.78;;;-3.43;86.93
30730;BME280;17476;48.458;7.928;2022-12-18T05:16:45;101206.81;;;-3.30;89.44
30730;BME280;17476;48.458;7.928;2022-12-18T05:19:11;101198.88;;;-3.20;89.00
30730;BME280;17476;48.458;7.928;2022-12-18T05:21:37;101203.22;;;-3.22;87.83
30730;BME280;17476;48.458;7.928;2022-12-18T05:24:03;101203.22;;;-3.22;87.60
30730;BME280;17476;48.458;7.928;2022-12-18T05:26:29;101207.91;;;-3.09;89.25
30730;BME280;17476;48.458;7.928;2022-12-18T05:28:56;101204.88;;;-3.21;87.95
30730;BME280;17476;48.458;7.928;2022-12-18T05:31:22;101207.38;;;-3.80;84.69
30730;BME280;17476;48.458;7.928;2022-12-18T05:33:49;101221.91;;;-4.15;87.20
30730;BME280;17476;48.458;7.928;2022-12-18T05:36:15;101217.03;;;-3.90;91.80
30730;BME280;17476;48.458;7.928;2022-12-18T05:38:41;101221.19;;;-3.55;92.03
30730;BME280;17476;48.458;7.928;2022-12-18T05:41:08;101211.09;;;-3.30;92.04
30730;BME280;17476;48.458;7.928;2022-12-18T05:43:36;101214.88;;;-3.14;91.37
30730;BME280;17476;48.458;7.928;2022-12-18T05:46:06;101212.56;;;-2.93;90.37
30730;BME280;17476;48.458;7.928;2022-12-18T05:48:32;101208.34;;;-2.94;89.40
30730;BME280;17476;48.458;7.928;2022-12-18T05:51:08;101218.25;;;-2.84;89.29
30730;BME280;17476;48.458;7.928;2022-12-18T05:53:35;101221.56;;;-2.80;88.57
30730;BME280;17476;48.458;7.928;2022-12-18T05:56:04;101220.53;;;-2.75;89.09
30730;BME280;17476;48.458;7.928;2022-12-18T05:58:31;101222.00;;;-2.67;88.60
30730;BME280;17476;48.458;7.928;2022-12-18T06:00:57;101228.53;;;-2.57;88.78
30730;BME280;17476;48.458;7.928;2022-12-18T06:03:24;101237.72;;;-2.52;87.22
30730;BME280;17476;48.458;7.928;2022-12-18T06:05:50;101233.25;;;-2.45;87.12
30730;BME280;17476;48.458;7.928;2022-12-18T06:08:15;101247.69;;;-2.42;86.07
30730;BME280;17476;48.458;7.928;2022-12-18T06:10:41;101243.97;;;-2.60;85.05
30730;BME280;17476;48.458;7.928;2022-12-18T06:13:08;101261.16;;;-2.64;84.50
30730;BME280;17476;48.458;7.928;2022-12-18T06:15:36;101266.06;;;-2.56;85.37
30730;BME280;17476;48.458;7.928;2022-12-18T06:18:03;101256.41;;;-2.48;84.95
30730;BME280;17476;48.458;7.928;2022-12-18T06:20:31;101262.22;;;-2.43;84.57
30730;BME280;17476;48.458;7.928;2022-12-18T06:22:57;101265.88;;;-2.50;83.97
30730;BME280;17476;48.458;7.928;2022-12-18T06:25:23;101265.88;;;-2.52;85.34
30730;BME280;17476;48.458;7.928;2022-12-18T06:27:49;101275.16;;;-2.48;85.64
30730;BME280;17476;48.458;7.928;2022-12-18T06:30:15;101282.75;;;-2.44;85.92
30730;BME280;17476;48.458;7.928;2022-12-18T06:32:41;101285.28;;;-2.43;85.55
30730;BME280;17476;48.458;7.928;2022-12-18T06:35:07;101285.16;;;-2.40;85.51
30730;BME280;17476;48.458;7.928;2022-12-18T06:37:33;101286.84;;;-2.39;85.32
30730;BME280;17476;48.458;7.928;2022-12-18T06:39:59;101288.69;;;-2.44;84.37
30730;BME280;17476;48.458;7.928;2022-12-18T06:42:26;101287.09;;;-2.47;85.18
30730;BME280;17476;48.458;7.928;2022-12-18T06:44:52;101288.81;;;-2.47;84.70
30730;BME280;17476;48.458;7.928;2022-12-18T06:47:18;101286.47;;;-2.55;84.57
30730;BME280;17476;48.458;7.928;2022-12-18T06:49:44;101291.84;;;-2.62;84.04
30730;BME280;17476;48.458;7.928;2022-12-18T06:52:10;101296.69;;;-3.11;83.94
30730;BME280;17476;48.458;7.928;2022-12-18T06:54:36;101283.28;;;-3.20;84.86
30730;BME280;17476;48.458;7.928;2022-12-18T06:57:01;101285.13;;;-3.25;85.46
30730;BME280;17476;48.458;7.928;2022-12-18T06:59:27;101291.50;;;-3.09;86.94
30730;BME280;17476;48.458;7.928;2022-12-18T07:01:53;101289.34;;;-2.93;86.94
30730;BME280;17476;48.458;7.928;2022-12-18T07:04:19;101284.94;;;-2.88;85.50
30730;BME280;17476;48.458;7.928;2022-12-18T07:06:45;101284.69;;;-2.81;86.17
30730;BME280;17476;48.458;7.928;2022-12-18T07:09:11;101277.69;;;-2.74;86.82
30730;BME280;17476;48.458;7.928;2022-12-18T07:11:36;101280.25;;;-2.74;85.81
30730;BME280;17476;48.458;7.928;2022-12-18T07:14:02;101284.69;;;-2.81;84.48
30730;BME280;17476;48.458;7.928;2022-12-18T07:16:28;101283.09;;;-2.83;86.43
30730;BME280;17476;48.458;7.928;2022-12-18T07:18:55;101283.34;;;-2.92;84.90
30730;BME280;17476;48.458;7.928;2022-12-18T07:21:22;101276.31;;;-2.86;86.65
30730;BME280;17476;48.458;7.928;2022-12-18T07:23:48;101274.81;;;-2.93;86.46
30730;BME280;17476;48.458;7.928;2022-12-18T07:26:17;101281.78;;;-3.27;82.98
30730;BME280;17476;48.458;7.928;2022-12-18T07:28:43;101282.44;;;-3.21;86.97
30730;BME280;17476;48.458;7.928;2022-12-18T07:31:15;101291.22;;;-3.30;85.35
30730;BME280;17476;48.458;7.928;2022-12-18T07:33:43;101298.63;;;-3.20;86.74
30730;BME280;17476;48.458;7.928;2022-12-18T07:36:10;101298.63;;;-3.20;86.44
30730;BME280;17476;48.458;7.928;2022-12-18T07:38:37;101316.00;;;-3.64;83.55
30730;BME280;17476;48.458;7.928;2022-12-18T07:41:07;101321.59;;;-3.50;87.95
30730;BME280;17476;48.458;7.928;2022-12-18T07:43:34;101317.03;;;-3.39;87.27
30730;BME280;17476;48.458;7.928;2022-12-18T07:46:00;101319.09;;;-3.20;87.51
30730;BME280;17476;48.458;7.928;2022-12-18T07:48:28;101322.25;;;-3.11;86.51
30730;BME280;17476;48.458;7.928;2022-12-18T07:50:59;101321.59;;;-3.19;85.95
30730;BME280;17476;48.458;7.928;2022-12-18T07:53:25;101324.63;;;-3.36;86.02
30730;BME280;17476;48.458;7.928;2022-12-18T07:55:59;101328.97;;;-3.38;86.49
30730;BME280;17476;48.458;7.928;2022-12-18T07:58:26;101335.28;;;-3.51;85.82
30730;BME280;17476;48.458;7.928;2022-12-18T08:00:52;101332.09;;;-3.61;83.82
30730;BME280;17476;48.458;7.928;2022-12-18T08:03:18;101346.81;;;-4.80;80.73
30730;BME280;17476;48.458;7.928;2022-12-18T08:05:45;101355.19;;;-5.18;85.07
30730;BME280;17476;48.458;7.928;2022-12-18T08:08:10;101355.38;;;-5.29;84.74
30730;BME280;17476;48.458;7.928;2022-12-18T08:10:37;101361.03;;;-5.60;86.11
30730;BME280;17476;48.458;7.928;2022-12-18T08:13:04;101361.38;;;-5.80;85.42
30730;BME280;17476;48.458;7.928;2022-12-18T08:15:30;101359.72;;;-5.82;90.16
30730;BME280;17476;48.458;7.928;2022-12-18T08:17:58;101362.78;;;-5.62;91.92
30730;BME280;17476;48.458;7.928;2022-12-18T08:20:24;101346.53;;;-5.10;95.01
30730;BME280;17476;48.458;7.928;2022-12-18T08:22:50;101349.53;;;-4.89;93.36
30730;BME280;17476;48.458;7.928;2022-12-18T08:25:16;101341.78;;;-5.30;88.15
30730;BME280;17476;48.458;7.928;2022-12-18T08:27:42;101346.75;;;-5.70;87.92
30730;BME280;17476;48.458;7.928;2022-12-18T08:30:09;101338.28;;;-5.69;91.91
30730;BME280;17476;48.458;7.928;2022-12-18T08:32:35;101337.13;;;-6.00;90.61
30730;BME280;17476;48.458;7.928;2022-12-18T08:35:00;101328.97;;;-5.71;94.93
30730;BME280;17476;48.458;7.928;2022-12-18T08:37:26;101326.44;;;-5.73;92.42
30730;BME280;17476;48.458;7.928;2022-12-18T08:39:52;101317.44;;;-5.44;93.54
30730;BME280;17476;48.458;7.928;2022-12-18T08:42:18;101319.16;;;-5.45;93.23
30730;BME280;17476;48.458;7.928;2022-12-18T08:45:03;101311.19;;;-5.30;91.32
30730;BME280;17476;48.458;7.928;2022-12-18T08:47:29;101303.72;;;-4.55;95.15
30730;BME280;17476;48.458;7.928;2022-12-18T08:49:55;101294.84;;;-4.39;92.99
30730;BME280;17476;48.458;7.928;2022-12-18T08:52:21;101288.28;;;-4.14;92.08
30730;BME280;17476;48.458;7.928;2022-12-18T08:54:47;101288.09;;;-4.42;86.55
30730;BME280;17476;48.458;7.928;2022-12-18T08:57:13;101304.81;;;-4.65;83.83
30730;BME280;17476;48.458;7.928;2022-12-18T08:59:38;101309.69;;;-4.97;82.88
30730;BME280;17476;48.458;7.928;2022-12-18T09:02:04;101313.91;;;-4.54;88.15
30730;BME280;17476;48.458;7.928;2022-12-18T09:04:30;101316.78;;;-4.30;85.43
30730;BME280;17476;48.458;7.928;2022-12-18T09:06:56;101310.06;;;-3.99;87.66
30730;BME280;17476;48.458;7.928;2022-12-18T09:09:22;101308.75;;;-4.15;82.00
30730;BME280;17476;48.458;7.928;2022-12-18T09:11:47;101308.00;;;-3.85;86.67
30730;BME280;17476;48.458;7.928;2022-12-18T09:14:13;101312.06;;;-3.76;83.48
30730;BME280;17476;48.458;7.928;2022-12-18T09:16:39;101306.06;;;-3.75;82.20
30730;BME280;17476;48.458;7.928;2022-12-18T09:19:05;101296.09;;;-3.53;85.00
30730;BME280;17476;48.458;7.928;2022-12-18T09:21:34;101307.13;;;-3.18;86.41
30730;BME280;17476;48.458;7.928;2022-12-18T09:24:00;101304.84;;;-2.98;86.31
30730;BME280;17476;48.458;7.928;2022-12-18T09:26:26;101310.53;;;-3.18;80.66
30730;BME280;17476;48.458;7.928;2022-12-18T09:28:53;101321.88;;;-3.61;79.74
30730;BME280;17476;48.458;7.928;2022-12-18T09:31:21;101321.00;;;-3.60;82.61
30730;BME280;17476;48.458;7.928;2022-12-18T09:33:47;101327.81;;;-3.27;86.03
30730;BME280;17476;48.458;7.928;2022-12-18T09:36:16;101329.44;;;-3.23;83.08
30730;BME280;17476;48.458;7.928;2022-12-18T09:38:42;101326.56;;;-3.44;82.62
30730;BME280;17476;48.458;7.928;2022-12-18T09:44:26;101336.47;;;-3.00;86.15
30730;BME280;17476;48.458;7.928;2022-12-18T09:47:11;101335.91;;;-2.81;85.82
30730;BME280;17476;48.458;7.928;2022-12-18T09:49:47;101347.59;;;-2.72;85.10
30730;BME280;17476;48.458;7.928;2022-12-18T09:52:21;101352.69;;;-2.70;83.66
30730;BME280;17476;48.458;7.928;2022-12-18T09:55:41;101352.69;;;-2.70;84.26
30730;BME280;17476;48.458;7.928;2022-12-18T09:58:39;101355.81;;;-2.61;84.50
30730;BME280;17476;48.458;7.928;2022-12-18T10:01:13;101345.16;;;-2.47;85.82
30730;BME280;17476;48.458;7.928;2022-12-18T10:03:40;101348.50;;;-2.45;84.17
30730;BME280;17476;48.458;7.928;2022-12-18T10:09:42;101338.53;;;-2.26;83.49
30730;BME280;17476;48.458;7.928;2022-12-18T10:12:39;101335.09;;;-2.25;83.92
30730;BME280;17476;48.458;7.928;2022-12-18T10:15:28;101335.03;;;-2.24;83.52
30730;BME280;17476;48.458;7.928;2022-12-18T10:21:00;101318.31;;;-2.07;84.78
30730;BME280;17476;48.458;7.928;2022-12-18T10:26:36;101315.34;;;-1.95;85.00
30730;BME280;17476;48.458;7.928;2022-12-18T10:29:11;101316.97;;;-1.93;84.39
30730;BME280;17476;48.458;7.928;2022-12-18T10:31:37;101320.28;;;-1.89;84.36
30730;BME280;17476;48.458;7.928;2022-12-18T10:34:03;101322.72;;;-1.86;85.09
30730;BME280;17476;48.458;7.928;2022-12-18T10:36:29;101327.72;;;-1.81;84.21
30730;BME280;17476;48.458;7.928;2022-12-18T10:39:19;101317.13;;;-1.72;84.85
30730;BME280;17476;48.458;7.928;2022-12-18T10:41:45;101308.16;;;-1.59;84.71
30730;BME280;17476;48.458;7.928;2022-12-18T10:46:45;101287.72;;;-1.37;82.92
30730;BME280;17476;48.458;7.928;2022-12-18T10:49:31;101280.31;;;-1.21;82.83
30730;BME280;17476;48.458;7.928;2022-12-18T10:52:21;101284.81;;;-1.04;83.72
30730;BME280;17476;48.458;7.928;2022-12-18T10:54:57;101279.13;;;-0.89;82.87
30730;BME280;17476;48.458;7.928;2022-12-18T10:57:35;101281.59;;;-0.86;80.60
30730;BME280;17476;48.458;7.928;2022-12-18T11:00:31;101282.72;;;-0.71;81.70
30730;BME280;17476;48.458;7.928;2022-12-18T11:02:57;101275.47;;;-0.60;81.12
30730;BME280;17476;48.458;7.928;2022-12-18T11:05:34;101272.53;;;-0.51;81.03
30730;BME280;17476;48.458;7.928;2022-12-18T11:08:02;101266.25;;;-0.44;80.83
30730;BME280;17476;48.458;7.928;2022-12-18T11:10:47;101260.72;;;-0.35;80.83
30730;BME280;17476;48.458;7.928;2022-12-18T11:13:19;101258.00;;;-0.30;80.46
30730;BME280;17476;48.458;7.928;2022-12-18T11:34:57;101263.00;;;-0.49;80.84
30730;BME280;17476;48.458;7.928;2022-12-18T11:37:24;101263.78;;;-0.69;79.92
30730;BME280;17476;48.458;7.928;2022-12-18T11:40:01;101263.53;;;-0.85;80.62
30730;BME280;17476;48.458;7.928;2022-12-18T11:42:42;101261.72;;;-0.81;81.98
30730;BME280;17476;48.458;7.928;2022-12-18T11:48:01;101254.53;;;-0.73;81.99
30730;BME280;17476;48.458;7.928;2022-12-18T11:50:54;101251.06;;;-0.72;82.31
30730;BME280;17476;48.458;7.928;2022-12-18T11:53:21;101251.97;;;-0.73;81.86
30730;BME280;17476;48.458;7.928;2022-12-18T11:56:23;101245.34;;;-1.02;79.96
30730;BME280;17476;48.458;7.928;2022-12-18T12:01:54;101246.44;;;-1.07;81.73
30730;BME280;17476;48.458;7.928;2022-12-18T12:08:41;101248.91;;;-1.28;81.79
30730;BME280;17476;48.458;7.928;2022-12-18T12:14:31;101235.22;;;-1.05;83.24
30730;BME280;17476;48.458;7.928;2022-12-18T12:17:09;101230.91;;;-1.04;83.40
30730;BME280;17476;48.458;7.928;2022-12-18T12:19:48;101239.22;;;-0.98;82.71
30730;BME280;17476;48.458;7.928;2022-12-18T12:22:34;101230.84;;;-1.03;81.64
30730;BME280;17476;48.458;7.928;2022-12-18T12:30:21;101234.47;;;-0.85;82.34
30730;BME280;17476;48.458;7.928;2022-12-18T12:33:18;101240.31;;;-0.82;82.52
30730;BME280;17476;48.458;7.928;2022-12-18T12:38:41;101244.84;;;-0.88;83.20
30730;BME280;17476;48.458;7.928;2022-12-18T12:41:13;101245.97;;;-0.95;81.21
30730;BME280;17476;48.458;7.928;2022-12-18T12:44:03;101240.19;;;-1.00;83.55
30730;BME280;17476;48.458;7.928;2022-12-18T12:46:32;101237.41;;;-0.94;83.63
30730;BME280;17476;48.458;7.928;2022-12-18T12:49:18;101235.31;;;-0.85;82.77
30730;BME280;17476;48.458;7.928;2022-12-18T12:52:22;101230.75;;;-0.78;83.15
30730;BME280;17476;48.458;7.928;2022-12-18T12:54:51;101224.66;;;-0.75;83.13
30730;BME280;17476;48.458;7.928;2022-12-18T12:57:30;101224.50;;;-0.71;83.18
30730;BME280;17476;48.458;7.928;2022-12-18T13:00:12;101213.38;;;-0.71;82.94
30730;BME280;17476;48.458;7.928;2022-12-18T13:02:59;101220.34;;;-0.75;83.13
30730;BME280;17476;48.458;7.928;2022-12-18T13:08:29;101207.59;;;-0.76;84.14
30730;BME280;17476;48.458;7.928;2022-12-18T13:10:58;101202.28;;;-0.72;83.77
30730;BME280;17476;48.458;7.928;2022-12-18T13:13:53;101196.09;;;-0.68;83.84
30730;BME280;17476;48.458;7.928;2022-12-18T13:16:25;101197.75;;;-0.65;83.20
30730;BME280;17476;48.458;7.928;2022-12-18T13:18:57;101183.94;;;-0.63;83.50
30730;BME280;17476;48.458;7.928;2022-12-18T13:21:30;101190.88;;;-0.65;83.75
30730;BME280;17476;48.458;7.928;2022-12-18T13:23:57;101186.94;;;-0.73;82.57
30730;BME280;17476;48.458;7.928;2022-12-18T13:26:39;101187.72;;;-0.71;84.06
30730;BME280;17476;48.458;7.928;2022-12-18T13:29:05;101184.16;;;-0.69;84.06
30730;BME280;17476;48.458;7.928;2022-12-18T13:34:28;101178.03;;;-0.65;84.69
30730;BME280;17476;48.458;7.928;2022-12-18T13:39:57;101176.81;;;-0.56;83.38
30730;BME280;17476;48.458;7.928;2022-12-18T13:42:31;101172.66;;;-0.59;82.84
30730;BME280;17476;48.458;7.928;2022-12-18T13:45:42;101170.19;;;-0.62;83.34
30730;BME280;17476;48.458;7.928;2022-12-18T13:48:23;101163.44;;;-0.64;83.93
30730;BME280;17476;48.458;7.928;2022-12-18T13:51:06;101177.00;;;-0.61;85.04
30730;BME280;17476;48.458;7.928;2022-12-18T13:53:50;101169.31;;;-0.61;84.50
30730;BME280;17476;48.458;7.928;2022-12-18T13:56:21;101176.44;;;-0.67;84.52
30730;BME280;17476;48.458;7.928;2022-12-18T13:59:11;101167.75;;;-0.65;85.45
30730;BME280;17476;48.458;7.928;2022-12-18T14:01:53;101159.81;;;-0.59;85.53
30730;BME280;17476;48.458;7.928;2022-12-18T14:04:29;101160.63;;;-0.58;85.45
30730;BME280;17476;48.458;7.928;2022-12-18T14:07:09;101158.81;;;-0.56;85.25
30730;BME280;17476;48.458;7.928;2022-12-18T14:10:02;101151.44;;;-0.64;84.07
30730;BME280;17476;48.458;7.928;2022-12-18T14:12:31;101145.63;;;-0.69;84.50
30730;BME280;17476;48.458;7.928;2022-12-18T14:15:43;101155.97;;;-0.70;84.65
30730;BME280;17476;48.458;7.928;2022-12-18T14:21:04;101158.63;;;-0.72;83.45
30730;BME280;17476;48.458;7.928;2022-12-18T14:23:36;101167.28;;;-0.74;83.68
30730;BME280;17476;48.458;7.928;2022-12-18T14:26:26;101162.19;;;-0.76;84.28
30730;BME280;17476;48.458;7.928;2022-12-18T14:28:56;101168.38;;;-0.80;84.29
30730;BME280;17476;48.458;7.928;2022-12-18T14:31:27;101167.72;;;-0.85;84.79
30730;BME280;17476;48.458;7.928;2022-12-18T14:33:54;101172.72;;;-0.82;84.95
30730;BME280;17476;48.458;7.928;2022-12-18T14:36:29;101175.16;;;-0.79;84.90
30730;BME280;17476;48.458;7.928;2022-12-18T14:38:58;101172.06;;;-0.87;84.41
30730;BME280;17476;48.458;7.928;2022-12-18T14:41:26;101165.31;;;-0.90;85.04